Time;durP1;ratioP1;P1;durP2;ratioP2;P2;SDS_P1;SDS_P2;PMS_P1;PMS_P2;Temp;Humidity;BMP_temperature;BMP_pressure;BME280_temperature;BME280_humidity;BME280_pressure;Samples;Min_cycle;Max_cycle;Signal;HPM_P1;HPM_P2
2023/05/25 00:00:14;;;;;;;10.20;4.70;;;;;;;13.59;100.00;99979.69;5009417;28;20046;-21
2023/05/25 00:02:41;;;;;;;10.35;5.00;;;;;;;13.48;100.00;99998.47;5009813;28;20040;-19
2023/05/25 00:05:09;;;;;;;9.32;5.22;;;;;;;13.89;100.00;99983.94;5009474;28;20030;-18
2023/05/25 00:07:35;;;;;;;10.55;5.78;;;;;;;14.24;100.00;99981.03;5009997;28;20022;-19
2023/05/25 00:10:00;;;;;;;7.88;5.40;;;;;;;14.37;100.00;99982.56;5009482;28;20386;-19
2023/05/25 00:12:29;;;;;;;9.32;5.68;;;;;;;13.90;100.00;99969.50;5009378;28;20116;-19
2023/05/25 00:14:54;;;;;;;9.75;5.53;;;;;;;13.98;100.00;99976.31;5009494;28;20034;-19
2023/05/25 00:17:20;;;;;;;10.77;5.95;;;;;;;13.98;100.00;99962.91;5009263;28;20026;-18
2023/05/25 00:19:46;;;;;;;12.45;5.63;;;;;;;13.99;100.00;99978.75;5009359;28;20056;-19
2023/05/25 00:22:11;;;;;;;8.65;4.65;;;;;;;13.96;100.00;99973.88;5009578;28;20335;-19
2023/05/25 00:24:38;;;;;;;6.93;4.75;;;;;;;13.96;100.00;99970.38;5008554;28;20021;-19
2023/05/25 00:27:06;;;;;;;12.48;6.60;;;;;;;14.18;100.00;99965.06;5008915;28;20089;-19
2023/05/25 00:29:31;;;;;;;10.02;7.18;;;;;;;14.33;100.00;99976.06;5009101;28;20038;-20
2023/05/25 00:31:57;;;;;;;9.82;6.70;;;;;;;14.41;100.00;99980.19;5009186;28;20022;-18
2023/05/25 00:34:22;;;;;;;11.98;7.40;;;;;;;14.58;100.00;99988.25;5009165;28;20025;-19
2023/05/25 00:36:48;;;;;;;9.55;7.07;;;;;;;14.09;100.00;99991.50;5008947;28;20026;-18
2023/05/25 00:39:22;;;;;;;9.80;6.50;;;;;;;14.24;100.00;99981.03;5008753;28;20489;-19
2023/05/25 00:41:48;;;;;;;10.00;6.45;;;;;;;14.23;100.00;99989.31;5008685;28;20042;-18
2023/05/25 00:44:15;;;;;;;10.05;6.82;;;;;;;14.46;100.00;99983.78;5008972;28;20033;-19
2023/05/25 00:46:49;;;;;;;9.68;6.63;;;;;;;14.45;100.00;99975.97;5008751;28;20096;-20
2023/05/25 00:49:17;;;;;;;13.35;7.93;;;;;;;14.46;100.00;99982.94;5008941;28;20105;-19
2023/05/25 00:51:46;;;;;;;13.40;8.40;;;;;;;14.47;100.00;99985.38;5008689;28;20121;-18
2023/05/25 00:54:16;;;;;;;15.43;9.30;;;;;;;14.32;100.00;99970.94;5008642;28;20060;-19
2023/05/25 00:57:02;;;;;;;13.15;8.75;;;;;;;14.65;100.00;99975.47;5008669;28;20022;-20
2023/05/25 00:59:40;;;;;;;13.10;8.57;;;;;;;14.45;100.00;99960.66;5008874;28;20033;-20
2023/05/25 01:02:10;;;;;;;13.13;7.77;;;;;;;14.58;100.00;99966.78;5008811;28;20171;-20
2023/05/25 01:04:39;;;;;;;11.95;7.40;;;;;;;14.45;100.00;99938.41;5008699;28;20045;-19
2023/05/25 01:07:07;;;;;;;12.38;7.38;;;;;;;14.46;100.00;99966.84;5008349;28;20061;-19
2023/05/25 01:09:35;;;;;;;10.63;7.35;;;;;;;14.38;100.00;99968.06;5008408;28;20030;-19
2023/05/25 01:12:02;;;;;;;11.70;7.72;;;;;;;14.37;100.00;99946.88;5008380;28;20038;-19
2023/05/25 01:14:28;;;;;;;10.60;7.60;;;;;;;14.47;100.00;99966.59;5008373;28;20120;-19
2023/05/25 01:16:57;;;;;;;10.45;7.68;;;;;;;14.54;100.00;99965.59;5008355;28;20120;-19
2023/05/25 01:19:23;;;;;;;9.32;7.25;;;;;;;14.61;100.00;99958.25;5008005;28;20349;-19
2023/05/25 01:22:17;;;;;;;12.20;7.60;;;;;;;14.60;100.00;99961.97;5008715;28;20033;-20
2023/05/25 01:24:50;;;;;;;10.60;7.28;;;;;;;14.51;100.00;99952.72;5007977;28;20691;-17
2023/05/25 01:27:29;;;;;;;11.77;7.53;;;;;;;14.36;100.00;99927.25;5007886;28;20092;-20
2023/05/25 01:29:57;;;;;;;12.15;7.60;;;;;;;14.52;100.00;99959.69;5007909;28;20049;-20
2023/05/25 01:32:24;;;;;;;9.30;7.05;;;;;;;14.42;100.00;99955.78;5008035;28;20062;-19
2023/05/25 01:34:51;;;;;;;9.60;6.90;;;;;;;14.03;100.00;99958.41;5007759;28;20052;-19
2023/05/25 01:37:18;;;;;;;13.17;7.40;;;;;;;13.83;100.00;99952.72;5007903;28;20125;-19
2023/05/25 01:39:43;;;;;;;10.07;6.25;;;;;;;13.38;100.00;99966.97;5007626;28;20715;-19
2023/05/25 01:42:09;;;;;;;9.90;6.43;;;;;;;13.33;100.00;99966.88;5007729;28;20084;-18
2023/05/25 01:44:37;;;;;;;10.55;7.28;;;;;;;13.60;100.00;99964.41;5007919;28;20436;-19
2023/05/25 01:47:14;;;;;;;13.27;6.90;;;;;;;13.84;100.00;99963.22;5007818;28;20030;-19
2023/05/25 01:49:51;;;;;;;8.55;6.20;;;;;;;13.90;100.00;99958.75;5008032;28;20037;-19
2023/05/25 01:52:20;;;;;;;8.65;6.25;;;;;;;14.09;100.00;99961.19;5007829;28;20049;-19
2023/05/25 01:54:52;;;;;;;10.05;6.78;;;;;;;13.85;100.00;99946.09;5008039;28;20033;-19
2023/05/25 01:57:19;;;;;;;10.18;6.50;;;;;;;13.23;100.00;99949.53;5007549;28;20033;-19
2023/05/25 01:59:46;;;;;;;10.38;6.03;;;;;;;12.93;100.00;99960.44;5007463;28;20040;-20
2023/05/25 02:02:15;;;;;;;11.10;6.30;;;;;;;13.10;100.00;99971.22;5007606;28;20030;-21
2023/05/25 02:04:42;;;;;;;11.18;6.32;;;;;;;13.38;100.00;99966.97;5007177;28;20112;-28
2023/05/25 02:07:08;;;;;;;13.55;7.28;;;;;;;13.65;100.00;99961.84;5007834;28;20038;-19
2023/05/25 02:09:33;;;;;;;14.07;7.72;;;;;;;13.56;100.00;99969.44;5007369;28;20033;-19
2023/05/25 02:11:59;;;;;;;13.05;7.28;;;;;;;13.52;100.00;99973.66;5007128;28;20412;-19
2023/05/25 02:14:25;;;;;;;17.00;8.10;;;;;;;13.61;100.00;99972.22;5007353;28;20026;-19
2023/05/25 02:16:50;;;;;;;14.25;8.95;;;;;;;13.63;100.00;99972.78;5006793;28;20041;-19
2023/05/25 02:19:16;;;;;;;20.55;9.55;;;;;;;13.82;100.00;99980.59;5007397;28;20026;-19
2023/05/25 02:21:41;;;;;;;14.82;8.95;;;;;;;13.98;100.00;99977.13;5007058;28;20069;-22
2023/05/25 02:24:08;;;;;;;13.52;7.60;;;;;;;13.92;100.00;99980.78;5007411;28;20591;-19
2023/05/25 02:26:37;;;;;;;12.18;6.97;;;;;;;13.80;100.00;99980.03;5006977;28;20113;-20
2023/05/25 02:29:04;;;;;;;8.93;6.07;;;;;;;13.41;100.00;99977.22;5007070;28;20401;-19
2023/05/25 02:31:29;;;;;;;12.20;6.80;;;;;;;13.29;100.00;99979.09;5006984;28;20096;-19
2023/05/25 02:33:55;;;;;;;10.77;6.72;;;;;;;13.27;100.00;99982.81;5007029;28;20030;-19
2023/05/25 02:36:21;;;;;;;17.45;7.45;;;;;;;13.57;100.00;99981.00;5007162;28;20036;-20
2023/05/25 02:38:48;;;;;;;10.10;6.13;;;;;;;13.62;100.00;99981.06;5006974;28;20034;-18
2023/05/25 02:41:15;;;;;;;9.87;6.13;;;;;;;13.45;100.00;99978.34;5006963;28;20060;-19
2023/05/25 02:43:40;;;;;;;30.20;7.85;;;;;;;13.46;100.00;99980.81;5006994;28;20261;-19
2023/05/25 02:46:06;;;;;;;11.25;6.63;;;;;;;13.62;100.00;99987.22;5006835;28;20030;-22
2023/05/25 02:48:31;;;;;;;9.52;6.20;;;;;;;13.66;100.00;99974.97;5006520;28;20860;-20
2023/05/25 02:50:57;;;;;;;9.63;5.68;;;;;;;13.72;100.00;99975.88;5006820;28;20018;-19
2023/05/25 02:53:22;;;;;;;9.10;6.07;;;;;;;14.01;100.00;99987.34;5006740;28;20058;-20
2023/05/25 02:55:47;;;;;;;9.23;5.70;;;;;;;13.74;100.00;99992.53;5006833;28;20321;-19
2023/05/25 02:58:13;;;;;;;8.88;5.97;;;;;;;13.64;100.00;99993.16;5006625;28;20026;-23
2023/05/25 03:00:38;;;;;;;8.88;5.63;;;;;;;13.69;100.00;99989.78;5006460;28;20037;-18
2023/05/25 03:03:04;;;;;;;9.38;5.18;;;;;;;13.78;100.00;99995.53;5006658;28;20037;-19
2023/05/25 03:05:33;;;;;;;8.73;5.65;;;;;;;13.68;100.00;99998.06;5006384;28;20036;-19
2023/05/25 03:07:58;;;;;;;9.00;5.35;;;;;;;13.63;100.00;99983.50;5006547;28;20116;-19
2023/05/25 03:10:24;;;;;;;10.43;5.38;;;;;;;13.85;100.00;99982.78;5006360;28;20113;-18
2023/05/25 03:12:49;;;;;;;8.23;4.93;;;;;;;13.90;100.00;99990.13;5006498;28;20154;-19
2023/05/25 03:15:15;;;;;;;8.32;4.95;;;;;;;13.98;100.00;99993.22;5006454;28;20112;-20
2023/05/25 03:17:41;;;;;;;9.18;5.68;;;;;;;13.80;100.00;99994.25;5006487;28;20037;-19
2023/05/25 03:20:09;;;;;;;9.75;5.82;;;;;;;13.74;100.00;99997.09;5006633;28;20038;-19
2023/05/25 03:22:35;;;;;;;10.80;6.90;;;;;;;13.70;100.00;99998.63;5006550;28;20076;-19
2023/05/25 03:25:01;;;;;;;10.18;6.47;;;;;;;13.79;100.00;99997.16;5006388;28;20033;-20
2023/05/25 03:27:27;;;;;;;10.20;5.97;;;;;;;13.57;100.00;100002.41;5006464;28;20033;-19
2023/05/25 03:29:52;;;;;;;14.23;6.15;;;;;;;13.58;100.00;99998.66;5006270;28;20026;-18
2023/05/25 03:32:17;;;;;;;8.82;5.90;;;;;;;13.66;100.00;99996.41;5006013;28;20026;-19
2023/05/25 03:34:43;;;;;;;9.70;6.47;;;;;;;13.49;100.00;99987.53;5006678;28;20080;-19
2023/05/25 03:37:09;;;;;;;11.43;5.72;;;;;;;13.53;100.00;100007.44;5006507;28;20022;-19
2023/05/25 03:39:35;;;;;;;8.60;6.32;;;;;;;13.89;100.00;100000.00;5006130;28;20159;-18
2023/05/25 03:42:01;;;;;;;9.43;6.10;;;;;;;13.77;100.00;99997.41;5006030;28;20041;-20
2023/05/25 03:44:27;;;;;;;11.73;5.95;;;;;;;13.87;100.00;100010.16;5006175;28;20026;-19
2023/05/25 03:46:52;;;;;;;9.07;6.05;;;;;;;13.85;100.00;100004.22;5006354;28;20018;-19
2023/05/25 03:49:17;;;;;;;11.23;6.88;;;;;;;14.14;100.00;100007.69;5006113;28;20026;-19
2023/05/25 03:51:43;;;;;;;9.00;6.50;;;;;;;13.89;100.00;100000.00;5006345;28;20026;-17
2023/05/25 03:54:08;;;;;;;12.88;7.45;;;;;;;13.92;100.00;99999.53;5006298;28;20037;-19
2023/05/25 03:56:34;;;;;;;11.10;6.93;;;;;;;14.15;100.00;100005.81;5006446;28;20037;-19
2023/05/25 03:58:59;;;;;;;14.93;7.22;;;;;;;14.04;100.00;99996.78;5007049;28;20105;-19
2023/05/25 04:01:25;;;;;;;12.35;6.95;;;;;;;14.08;100.00;99987.22;5009478;28;20402;-21
2023/05/25 04:03:54;;;;;;;12.48;8.10;;;;;;;13.96;100.00;99999.88;5009730;28;20060;-21
2023/05/25 04:06:20;;;;;;;16.20;8.93;;;;;;;14.29;100.00;100004.44;5009182;28;20025;-20
2023/05/25 04:08:46;;;;;;;22.23;10.10;;;;;;;14.54;100.00;100005.88;5009426;28;20421;-19
2023/05/25 04:11:12;;;;;;;24.33;10.88;;;;;;;14.52;100.00;100007.97;5009583;28;20516;-19
2023/05/25 04:13:39;;;;;;;17.58;9.80;;;;;;;14.64;100.00;100006.03;5009640;28;20041;-19
2023/05/25 04:16:05;;;;;;;17.27;11.23;;;;;;;15.09;100.00;100006.91;5009306;28;20159;-18
2023/05/25 04:18:31;;;;;;;17.83;11.68;;;;;;;15.31;100.00;100004.19;5009571;28;20034;-20
2023/05/25 04:20:56;;;;;;;18.92;12.50;;;;;;;15.38;100.00;100010.19;5009377;28;20030;-19
2023/05/25 04:23:22;;;;;;;18.88;11.75;;;;;;;15.31;100.00;100009.56;5009414;28;20030;-19
2023/05/25 04:25:49;;;;;;;16.10;12.43;;;;;;;15.39;100.00;100017.19;5009479;28;20022;-19
2023/05/25 04:28:16;;;;;;;22.23;12.45;;;;;;;15.39;100.00;100017.19;5009269;28;20025;-23
2023/05/25 04:30:42;;;;;;;16.77;12.27;;;;;;;15.45;100.00;100021.56;5009350;28;20505;-18
2023/05/25 04:33:11;;;;;;;17.65;11.80;;;;;;;15.62;100.00;100024.94;5009088;28;20109;-19
2023/05/25 04:35:36;;;;;;;16.73;12.52;;;;;;;15.75;100.00;100044.47;5009195;28;20563;-19
2023/05/25 04:38:03;;;;;;;18.92;13.07;;;;;;;15.85;100.00;100037.34;5009022;28;20025;-20
2023/05/25 04:40:31;;;;;;;17.02;12.02;;;;;;;15.84;100.00;100040.28;5008837;28;20046;-20
2023/05/25 04:42:57;;;;;;;15.15;12.15;;;;;;;15.91;100.00;100040.06;5008924;28;20568;-20
2023/05/25 04:45:23;;;;;;;15.45;11.65;;;;;;;15.98;100.00;100046.84;5008936;28;20104;-19
2023/05/25 04:47:48;;;;;;;17.60;12.98;;;;;;;16.01;100.00;100040.16;5008835;28;20409;-19
2023/05/25 04:50:14;;;;;;;15.90;11.30;;;;;;;16.14;100.00;100038.91;5009096;28;20175;-19
2023/05/25 04:52:39;;;;;;;13.70;11.23;;;;;;;16.37;100.00;100040.47;5008761;28;20025;-19
2023/05/25 04:55:05;;;;;;;14.68;12.27;;;;;;;16.50;100.00;100036.50;5008797;28;20080;-19
2023/05/25 04:57:31;;;;;;;15.63;11.65;;;;;;;16.65;100.00;100028.50;5008577;28;20033;-19
2023/05/25 04:59:57;;;;;;;15.90;11.85;;;;;;;16.72;100.00;100029.09;5008558;28;20384;-19
2023/05/25 05:02:23;;;;;;;16.30;12.15;;;;;;;16.98;100.00;100031.94;5008470;28;20070;-20
2023/05/25 05:04:52;;;;;;;15.73;12.35;;;;;;;17.11;100.00;100042.25;5008098;28;20049;-20
2023/05/25 05:07:18;;;;;;;14.95;11.50;;;;;;;17.04;100.00;100041.69;5007885;28;20026;-21
2023/05/25 05:09:43;;;;;;;14.55;11.50;;;;;;;17.13;100.00;100053.59;5008352;28;20084;-20
2023/05/25 05:12:08;;;;;;;16.42;11.57;;;;;;;17.42;100.00;100048.56;5008381;28;20563;-19
2023/05/25 05:14:34;;;;;;;15.77;12.02;;;;;;;17.42;100.00;100042.38;5008595;28;20128;-19
2023/05/25 05:17:00;;;;;;;13.35;11.05;;;;;;;17.70;100.00;100053.78;5008423;28;20456;-19
2023/05/25 05:19:25;;;;;;;14.15;11.35;;;;;;;17.93;100.00;100053.31;5008538;28;20034;-19
2023/05/25 05:21:51;;;;;;;13.77;10.75;;;;;;;18.17;100.00;100061.72;5008105;28;20545;-19
2023/05/25 05:24:16;;;;;;;12.18;10.40;;;;;;;18.26;100.00;100051.97;5008465;28;20030;-19
2023/05/25 05:26:42;;;;;;;12.63;10.45;;;;;;;18.48;100.00;100053.59;5007825;28;20327;-20
2023/05/25 05:29:07;;;;;;;15.35;11.15;;;;;;;18.70;100.00;100053.31;5008313;28;20026;-21
2023/05/25 05:31:33;;;;;;;13.50;10.40;;;;;;;18.72;100.00;100043.03;5008238;28;20611;-19
2023/05/25 05:33:58;;;;;;;13.55;10.65;;;;;;;18.89;100.00;100044.66;5007999;28;20034;-18
2023/05/25 05:36:24;;;;;;;14.25;10.20;;;;;;;19.11;100.00;100052.41;5008190;28;20030;-19
2023/05/25 05:38:49;;;;;;;12.05;9.48;;;;;;;19.14;100.00;100055.34;5007764;28;20036;-19
2023/05/25 05:41:15;;;;;;;13.32;9.05;;;;;;;19.42;100.00;100062.00;5007687;28;20080;-21
2023/05/25 05:43:42;;;;;;;11.05;8.50;;;;;;;19.26;100.00;100036.94;5007813;28;20034;-19
2023/05/25 05:46:10;;;;;;;11.68;7.97;;;;;;;19.43;100.00;100052.81;5007747;28;20088;-19
2023/05/25 05:48:36;;;;;;;10.27;8.05;;;;;;;19.44;100.00;100053.63;5007511;28;20092;-19
2023/05/25 05:51:05;;;;;;;11.68;8.50;;;;;;;19.17;100.00;100056.72;5007579;28;20066;-19
2023/05/25 05:53:31;;;;;;;13.88;7.75;;;;;;;19.11;100.00;100047.00;5007704;28;20436;-19
2023/05/25 05:55:58;;;;;;;12.60;8.40;;;;;;;19.16;100.00;100061.31;5007364;28;20117;-19
2023/05/25 05:58:28;;;;;;;11.67;7.83;;;;;;;19.21;99.97;100063.19;5007756;28;20050;-19
2023/05/25 06:00:55;;;;;;;10.77;7.97;;;;;;;19.07;100.00;100055.66;5007533;28;20281;-20
2023/05/25 06:03:21;;;;;;;10.27;7.60;;;;;;;19.06;100.00;100055.94;5007677;28;20037;-21
2023/05/25 06:05:47;;;;;;;10.65;7.60;;;;;;;19.07;100.00;100061.06;5007555;28;20026;-20
2023/05/25 06:08:12;;;;;;;9.75;7.75;;;;;;;19.33;100.00;100069.09;5007474;28;20030;-19
2023/05/25 06:10:38;;;;;;;10.73;7.88;;;;;;;19.48;100.00;100070.91;5007031;28;20891;-19
2023/05/25 06:13:06;;;;;;;10.70;6.97;;;;;;;19.60;98.74;100067.88;5007551;28;20049;-18
2023/05/25 06:15:31;;;;;;;8.27;6.93;;;;;;;19.79;95.80;100076.19;5007361;28;20607;-19
2023/05/25 06:17:57;;;;;;;10.60;7.15;;;;;;;19.89;97.12;100069.91;5007305;28;20042;-19
2023/05/25 06:20:22;;;;;;;11.95;7.15;;;;;;;19.90;94.81;100085.03;5007047;28;20116;-19
2023/05/25 06:22:48;;;;;;;9.27;7.35;;;;;;;19.98;95.11;100084.44;5006497;28;20022;-19
2023/05/25 06:25:14;;;;;;;10.75;6.80;;;;;;;19.72;94.34;100076.50;5005711;28;20076;-20
2023/05/25 06:27:40;;;;;;;8.93;6.68;;;;;;;20.04;95.67;100088.75;5006997;28;20029;-19
2023/05/25 06:30:06;;;;;;;12.57;7.57;;;;;;;20.01;96.25;100092.81;4998669;28;20490;-19
2023/05/25 06:32:31;;;;;;;10.30;6.78;;;;;;;20.05;93.03;100091.16;4990022;28;20029;-19
2023/05/25 06:34:56;;;;;;;10.13;7.30;;;;;;;19.87;93.77;100084.50;4987671;28;20022;-19
2023/05/25 06:37:22;;;;;;;11.05;6.90;;;;;;;20.01;92.31;100087.41;4987339;28;20018;-19
2023/05/25 06:39:47;;;;;;;8.68;6.38;;;;;;;20.38;93.55;100091.47;4987692;28;20413;-19
2023/05/25 06:42:13;;;;;;;9.77;6.85;;;;;;;20.52;92.40;100091.63;4987062;28;20130;-19
2023/05/25 06:44:39;;;;;;;11.82;7.78;;;;;;;20.75;93.34;100087.38;4987864;28;20034;-19
2023/05/25 06:47:05;;;;;;;10.38;7.38;;;;;;;20.72;92.45;100093.38;4987436;28;20524;-22
2023/05/25 06:49:31;;;;;;;10.50;8.05;;;;;;;20.87;92.68;100082.38;4986896;28;20030;-19
2023/05/25 06:51:56;;;;;;;10.13;7.72;;;;;;;20.84;92.42;100085.66;5004747;28;20065;-20
2023/05/25 06:54:22;;;;;;;9.10;7.07;;;;;;;21.34;88.81;100092.72;5005475;28;20040;-20
2023/05/25 06:56:47;;;;;;;9.23;7.72;;;;;;;21.50;88.02;100093.38;5006695;28;20025;-19
2023/05/25 06:59:13;;;;;;;12.52;8.10;;;;;;;21.53;89.04;100085.44;5005873;28;20030;-19
2023/05/25 07:01:38;;;;;;;11.15;7.63;;;;;;;21.65;87.19;100095.88;5006583;28;20056;-19
2023/05/25 07:04:04;;;;;;;9.50;7.47;;;;;;;21.52;87.05;100083.03;5006225;28;20042;-20
2023/05/25 07:06:29;;;;;;;9.43;7.47;;;;;;;21.60;87.51;100090.53;5006180;28;20026;-19
2023/05/25 07:08:55;;;;;;;12.45;7.88;;;;;;;21.42;87.26;100086.63;5006319;28;20513;-19
2023/05/25 07:11:22;;;;;;;11.60;8.55;;;;;;;21.57;87.91;100088.38;5006065;28;20026;-20
2023/05/25 07:13:47;;;;;;;10.90;7.68;;;;;;;21.41;84.09;100072.28;5006837;28;20026;-19
2023/05/25 07:16:13;;;;;;;11.40;7.45;;;;;;;21.83;88.50;100088.84;5006783;28;20040;-19
2023/05/25 07:18:39;;;;;;;9.27;6.82;;;;;;;21.94;85.00;100090.28;5006454;28;20456;-24
2023/05/25 07:21:08;;;;;;;9.55;7.43;;;;;;;22.30;83.59;100095.22;4998576;28;20038;-19
2023/05/25 07:23:39;;;;;;;10.25;7.68;;;;;;;22.27;81.38;100095.78;4986830;28;20076;-19
2023/05/25 07:26:05;;;;;;;9.10;6.40;;;;;;;22.56;80.33;100092.09;4987026;28;20481;-20
2023/05/25 07:28:30;;;;;;;8.43;6.50;;;;;;;22.80;79.49;100095.44;4986975;28;20022;-19
2023/05/25 07:30:56;;;;;;;8.52;6.60;;;;;;;22.83;80.79;100078.53;4987031;28;20029;-19
2023/05/25 07:33:21;;;;;;;8.38;6.43;;;;;;;22.92;77.76;100083.25;4998098;28;20021;-19
2023/05/25 07:35:47;;;;;;;9.60;7.00;;;;;;;22.93;79.80;100082.97;5009990;28;20022;-20
2023/05/25 07:38:12;;;;;;;8.90;6.85;;;;;;;22.86;79.96;100088.81;5009888;28;20026;-21
2023/05/25 07:40:38;;;;;;;8.43;6.05;;;;;;;22.92;76.64;100077.81;5009668;28;20129;-19
2023/05/25 07:43:04;;;;;;;8.40;5.68;;;;;;;22.84;76.64;100080.16;5009608;28;20025;-20
2023/05/25 07:45:29;;;;;;;8.68;5.57;;;;;;;22.83;72.40;100086.69;5009520;28;20029;-19
2023/05/25 07:47:55;;;;;;;9.63;5.28;;;;;;;23.19;72.87;100090.66;5010064;28;20045;-19
2023/05/25 07:50:20;;;;;;;7.63;5.63;;;;;;;22.93;75.25;100090.34;5010154;28;20029;-20
2023/05/25 07:52:46;;;;;;;8.18;5.18;;;;;;;22.96;74.53;100087.78;5010086;28;20026;-19
2023/05/25 07:55:12;;;;;;;7.40;5.40;;;;;;;23.20;70.57;100082.19;5009777;28;20034;-19
2023/05/25 07:57:37;;;;;;;8.45;5.18;;;;;;;23.61;69.74;100091.44;5009921;28;20030;-19
2023/05/25 08:00:09;;;;;;;8.63;5.63;;;;;;;23.77;68.32;100094.66;5009301;28;20036;-19
2023/05/25 08:02:35;;;;;;;7.07;4.60;;;;;;;23.84;65.74;100095.03;5009812;28;20064;-19
2023/05/25 08:05:04;;;;;;;9.60;5.15;;;;;;;24.09;66.38;100090.09;5009300;28;20053;-19
2023/05/25 08:07:33;;;;;;;8.25;4.90;;;;;;;24.19;63.98;100084.41;5009879;28;20018;-19
2023/05/25 08:09:59;;;;;;;8.55;5.07;;;;;;;24.25;64.87;100089.44;5009479;28;20037;-19
2023/05/25 08:12:24;;;;;;;6.97;5.20;;;;;;;24.40;60.74;100085.53;5009722;28;20037;-21
2023/05/25 08:14:50;;;;;;;7.65;5.13;;;;;;;24.47;59.22;100085.88;5009758;28;20034;-19
2023/05/25 08:17:16;;;;;;;7.15;4.78;;;;;;;24.57;58.57;100094.97;5009520;28;20026;-19
2023/05/25 08:19:41;;;;;;;8.93;5.07;;;;;;;24.73;58.05;100095.38;5009263;28;20398;-19
2023/05/25 08:22:06;;;;;;;7.18;4.72;;;;;;;24.75;60.91;100080.31;5009366;28;20033;-20
2023/05/25 08:24:32;;;;;;;5.93;4.53;;;;;;;24.95;57.91;100083.59;5009100;28;20148;-19
2023/05/25 08:26:57;;;;;;;8.05;4.70;;;;;;;24.88;54.86;100081.31;5009741;28;20018;-19
2023/05/25 08:29:23;;;;;;;6.65;4.43;;;;;;;24.83;59.21;100065.91;5009388;28;20026;-19
2023/05/25 08:31:50;;;;;;;7.07;4.80;;;;;;;25.01;63.51;100065.97;5009154;28;20113;-20
2023/05/25 08:34:15;;;;;;;7.70;5.20;;;;;;;25.05;59.42;100062.28;5008855;28;20987;-20
2023/05/25 08:36:41;;;;;;;7.25;4.70;;;;;;;25.07;58.65;100056.53;5009121;28;20025;-20
2023/05/25 08:39:07;;;;;;;6.72;4.47;;;;;;;25.36;55.54;100052.47;4991283;28;20104;-20
2023/05/25 08:41:40;;;;;;;7.10;4.25;;;;;;;25.70;52.45;100070.00;5008695;28;20484;-19
2023/05/25 08:44:07;;;;;;;5.95;4.32;;;;;;;25.84;52.41;100055.03;5008574;28;20072;-19
2023/05/25 08:46:33;;;;;;;6.70;4.60;;;;;;;26.15;48.60;100075.16;5008601;28;20022;-20
2023/05/25 08:49:17;;;;;;;5.82;4.00;;;;;;;26.28;50.84;100063.25;5008693;28;20026;-20
2023/05/25 08:52:01;;;;;;;7.25;4.63;;;;;;;26.48;50.57;100066.41;5007573;28;20026;-19
2023/05/25 08:54:47;;;;;;;8.15;5.55;;;;;;;26.16;53.70;100063.13;5008724;28;20029;-21
2023/05/25 08:57:25;;;;;;;7.13;5.00;;;;;;;25.91;53.58;100043.69;5008625;28;20030;-19
2023/05/25 09:00:09;;;;;;;5.70;4.07;;;;;;;26.34;52.99;100061.16;5008396;28;20034;-20
2023/05/25 09:02:50;;;;;;;9.10;4.93;;;;;;;26.41;52.08;100062.25;5008734;28;20030;-19
2023/05/25 09:05:16;;;;;;;7.05;4.45;;;;;;;26.39;52.06;100060.97;5008760;28;20034;-21
2023/05/25 09:07:42;;;;;;;7.07;4.50;;;;;;;26.51;50.60;100065.78;5008299;28;20452;-19
2023/05/25 09:10:10;;;;;;;6.93;4.20;;;;;;;27.04;48.18;100067.22;5008255;28;20030;-20
2023/05/25 09:12:36;;;;;;;7.55;4.47;;;;;;;27.46;46.04;100053.59;5008337;28;20677;-20
2023/05/25 09:15:02;;;;;;;7.97;4.35;;;;;;;27.60;46.24;100061.56;5008402;28;20026;-20
2023/05/25 09:17:27;;;;;;;8.60;4.40;;;;;;;27.93;49.55;100058.94;5008278;28;20026;-19
2023/05/25 09:19:53;;;;;;;7.63;4.38;;;;;;;27.62;46.17;100054.66;5008042;28;20036;-19
2023/05/25 09:22:19;;;;;;;5.63;3.85;;;;;;;27.93;45.37;100053.47;5008182;28;20133;-19
2023/05/25 09:24:44;;;;;;;7.25;4.07;;;;;;;27.94;45.23;100049.56;5008071;28;20030;-20
2023/05/25 09:27:11;;;;;;;9.13;3.75;;;;;;;27.86;43.80;100044.94;5008216;28;20033;-19
2023/05/25 09:29:37;;;;;;;7.07;3.30;;;;;;;27.58;40.79;100048.22;5007885;28;20053;-21
2023/05/25 09:32:06;;;;;;;4.22;2.80;;;;;;;28.18;37.49;100048.88;5008185;28;20030;-20
2023/05/25 09:34:34;;;;;;;5.43;3.30;;;;;;;28.56;38.35;100047.03;5008119;28;20033;-19
2023/05/25 09:37:09;;;;;;;5.57;3.15;;;;;;;28.90;39.09;100040.31;5008176;28;20040;-22
2023/05/25 09:39:35;;;;;;;6.22;3.00;;;;;;;28.28;41.42;100031.19;5008233;28;20421;-19
2023/05/25 09:42:01;;;;;;;5.38;3.38;;;;;;;28.35;42.72;100036.91;5007887;28;20767;-20
2023/05/25 09:44:27;;;;;;;7.10;3.50;;;;;;;28.08;41.12;100032.84;5003600;28;20037;-20
2023/05/25 09:46:52;;;;;;;5.10;3.70;;;;;;;28.45;43.40;100030.97;4988526;28;20029;-21
2023/05/25 09:49:18;;;;;;;6.10;3.85;;;;;;;28.48;41.25;100024.00;4988283;28;20026;-19
2023/05/25 09:51:44;;;;;;;5.70;3.53;;;;;;;29.28;40.57;100019.13;4988224;28;20034;-19
2023/05/25 09:54:10;;;;;;;6.15;3.53;;;;;;;29.17;41.65;100011.38;4988089;28;20033;-19
2023/05/25 09:56:35;;;;;;;5.85;3.70;;;;;;;28.96;41.13;100032.66;4987214;28;20497;-20
2023/05/25 09:59:02;;;;;;;6.78;3.13;;;;;;;28.77;41.06;100028.53;4988454;28;20022;-19
2023/05/25 10:01:27;;;;;;;7.10;3.58;;;;;;;29.17;41.16;100022.38;4988005;28;21003;-19
2023/05/25 10:03:58;;;;;;;5.57;3.55;;;;;;;28.48;40.66;100006.75;4987861;28;20563;-19
2023/05/25 10:06:25;;;;;;;7.13;3.63;;;;;;;28.08;40.67;100016.38;4987907;28;20687;-19
2023/05/25 10:08:52;;;;;;;6.45;3.80;;;;;;;27.88;43.82;100009.81;4987880;28;20041;-20
2023/05/25 10:11:20;;;;;;;5.90;3.72;;;;;;;27.69;42.90;100004.00;4987917;28;20060;-19
2023/05/25 10:13:46;;;;;;;5.50;3.83;;;;;;;27.34;43.99;100001.50;4987889;28;20030;-20
2023/05/25 10:16:17;;;;;;;5.43;3.67;;;;;;;26.66;45.56;100002.34;4987585;28;20033;-20
2023/05/25 10:18:50;;;;;;;5.20;3.50;;;;;;;26.59;44.14;100022.00;4987723;28;20026;-19
2023/05/25 10:21:18;;;;;;;7.18;3.95;;;;;;;26.57;45.44;100034.38;4987505;28;20034;-19
2023/05/25 10:23:49;;;;;;;;;;;;;;;26.46;45.83;100034.75;4988321;28;20109;-19
2023/05/25 10:26:19;;;;;;;7.68;3.65;;;;;;;26.38;46.02;100024.63;4987664;28;19917;-19
2023/05/25 10:28:46;;;;;;;9.93;4.95;;;;;;;26.42;48.70;100028.31;4987743;28;20027;-23
2023/05/25 10:31:13;;;;;;;;;;;;;;;26.34;48.13;100031.88;4988004;28;20497;-19
2023/05/25 10:33:39;;;;;;;9.43;4.18;;;;;;;26.00;48.92;100025.34;4987317;28;20360;-19
2023/05/25 10:36:05;;;;;;;6.72;3.92;;;;;;;25.96;49.16;100043.50;4987598;28;20105;-19
2023/05/25 10:38:32;;;;;;;7.07;4.13;;;;;;;25.78;51.09;100041.88;4987467;28;20145;-22
2023/05/25 10:41:04;;;;;;;5.13;3.30;;;;;;;24.94;51.77;100032.88;4987421;28;20117;-19
2023/05/25 10:43:31;;;;;;;6.22;3.55;;;;;;;24.32;54.19;100023.59;4987143;28;20032;-19
2023/05/25 10:45:56;;;;;;;5.80;3.25;;;;;;;23.91;55.23;100037.44;4987735;28;20022;-19
2023/05/25 10:48:23;;;;;;;8.18;3.70;;;;;;;23.84;57.21;100040.56;4987549;28;20032;-19
2023/05/25 10:50:50;;;;;;;5.60;3.90;;;;;;;23.47;60.24;100042.47;4987454;28;20138;-20
2023/05/25 10:53:16;;;;;;;5.55;3.55;;;;;;;23.25;61.80;100035.84;4986991;28;20035;-20
2023/05/25 10:56:00;;;;;;;8.88;3.67;;;;;;;23.13;62.17;100032.03;4987420;28;20117;-19
2023/05/25 10:58:28;;;;;;;6.40;3.70;;;;;;;23.06;61.87;100016.13;4987317;28;20034;-19
2023/05/25 11:01:11;;;;;;;7.50;4.15;;;;;;;23.40;61.77;100018.38;4986069;28;20026;-20
2023/05/25 11:03:55;;;;;;;7.18;4.47;;;;;;;23.25;65.74;100014.09;4986826;28;20128;-19
2023/05/25 11:06:22;;;;;;;9.27;4.70;;;;;;;22.94;69.01;100008.44;4986621;28;20071;-20
2023/05/25 11:08:54;;;;;;;8.02;4.68;;;;;;;23.06;69.13;100007.94;4989349;28;20030;-19
2023/05/25 11:11:21;;;;;;;9.25;4.63;;;;;;;23.09;68.29;100010.09;4991048;28;20081;-19
2023/05/25 11:13:48;;;;;;;7.97;4.68;;;;;;;23.39;66.82;100024.13;4990749;28;20850;-18
2023/05/25 11:16:19;;;;;;;7.47;4.40;;;;;;;23.65;64.92;100027.88;4990975;28;20576;-19
2023/05/25 11:18:59;;;;;;;6.97;4.30;;;;;;;23.51;68.96;100010.00;4990608;28;20798;-22